SBCY/CGB METAR and TAF weather

Enter ICAO airport designator
Station Type Date Time Source
SBCY METAR 2018/12/11 18:00 UTC NOAA

SBCY 111800Z 35007KT 9999 BKN030 34/19 Q1013


Station Type Date Time Source
SBCY Decoded METAR 2018/12/11 18:00 UTC NOAA

Cuiaba Aeroporto , Brazil (SBCY) 15-39S 056-06W 182M
Dec 11, 2018 - 01:00 PM EST / 2018.12.11 1800 UTC
Wind: from the N (350 degrees) at 8 MPH (7 KT):0
Visibility: greater than 7 mile(s):0
Sky conditions: mostly cloudy
Temperature: 93 F (34 C)
Heat index: 95.9 F (35.5 C):1
Dew Point: 66 F (19 C)
Relative Humidity: 41%
Pressure (altimeter): 29.91 in. Hg (1013 hPa)
ob: SBCY 111800Z 35007KT 9999 BKN030 34/19 Q1013
cycle: 18

Station Type Date Time Source
SBCY TAF 2018/12/11 18:57 UTC NOAA

TAF TAF SBCY 111600Z 1118/1218 03007KT 9999 BKN020 TX33/1118Z TN23/1207Z
BECMG 1119/1121 SCT030
BECMG 1123/1201 33005KT CAVOK
BECMG 1211/1213 32010 KT 9999 SCT020
BECMG 1215/1217 BKN030
RMK PAZ


Example: see airport list